sensor_id;sensor_type;location;lat;lon;timestamp;temperature;humidity
1650;DHT22;822;53.670;8.676;2023-04-03T00:00:17;1.70;84.30
1650;DHT22;822;53.670;8.676;2023-04-03T00:02:44;1.60;84.30
1650;DHT22;822;53.670;8.676;2023-04-03T00:05:11;1.60;84.50
1650;DHT22;822;53.670;8.676;2023-04-03T00:07:38;1.60;84.50
1650;DHT22;822;53.670;8.676;2023-04-03T00:10:06;1.60;84.50
1650;DHT22;822;53.670;8.676;2023-04-03T00:12:35;1.60;84.70
1650;DHT22;822;53.670;8.676;2023-04-03T00:15:02;1.60;84.90
1650;DHT22;822;53.670;8.676;2023-04-03T00:17:30;1.50;85.10
1650;DHT22;822;53.670;8.676;2023-04-03T00:19:57;1.50;85.80
1650;DHT22;822;53.670;8.676;2023-04-03T00:22:24;1.50;85.40
1650;DHT22;822;53.670;8.676;2023-04-03T00:24:52;1.50;85.60
1650;DHT22;822;53.670;8.676;2023-04-03T00:27:19;1.50;85.60
1650;DHT22;822;53.670;8.676;2023-04-03T00:29:47;1.50;85.80
1650;DHT22;822;53.670;8.676;2023-04-03T00:32:15;1.50;86.00
1650;DHT22;822;53.670;8.676;2023-04-03T00:34:42;1.40;86.00
1650;DHT22;822;53.670;8.676;2023-04-03T00:37:09;1.40;86.20
1650;DHT22;822;53.670;8.676;2023-04-03T00:39:36;1.40;86.40
1650;DHT22;822;53.670;8.676;2023-04-03T00:42:05;1.40;86.50
1650;DHT22;822;53.670;8.676;2023-04-03T00:47:39;1.30;86.60
1650;DHT22;822;53.670;8.676;2023-04-03T00:50:08;1.30;86.70
1650;DHT22;822;53.670;8.676;2023-04-03T00:52:35;1.30;86.90
1650;DHT22;822;53.670;8.676;2023-04-03T00:55:06;1.20;86.90
1650;DHT22;822;53.670;8.676;2023-04-03T00:57:38;1.20;86.90
1650;DHT22;822;53.670;8.676;2023-04-03T01:00:08;1.20;87.20
1650;DHT22;822;53.670;8.676;2023-04-03T01:02:38;1.10;87.20
1650;DHT22;822;53.670;8.676;2023-04-03T01:05:06;1.10;87.40
1650;DHT22;822;53.670;8.676;2023-04-03T01:07:34;1.10;87.60
1650;DHT22;822;53.670;8.676;2023-04-03T01:10:04;1.10;87.70
1650;DHT22;822;53.670;8.676;2023-04-03T01:12:34;1.10;87.70
1650;DHT22;822;53.670;8.676;2023-04-03T01:15:06;1.10;88.10
1650;DHT22;822;53.670;8.676;2023-04-03T01:17:35;1.10;88.20
1650;DHT22;822;53.670;8.676;2023-04-03T01:23:27;1.10;88.50
1650;DHT22;822;53.670;8.676;2023-04-03T01:25:57;1.10;88.30
1650;DHT22;822;53.670;8.676;2023-04-03T01:28:26;1.10;88.50
1650;DHT22;822;53.670;8.676;2023-04-03T01:31:00;1.00;88.60
1650;DHT22;822;53.670;8.676;2023-04-03T01:33:30;1.00;88.60
1650;DHT22;822;53.670;8.676;2023-04-03T01:35:58;1.00;88.70
1650;DHT22;822;53.670;8.676;2023-04-03T01:38:25;1.00;88.90
1650;DHT22;822;53.670;8.676;2023-04-03T01:40:55;1.00;88.90
1650;DHT22;822;53.670;8.676;2023-04-03T01:43:22;1.00;89.20
1650;DHT22;822;53.670;8.676;2023-04-03T01:45:49;1.00;89.20
1650;DHT22;822;53.670;8.676;2023-04-03T01:48:18;1.00;89.20
1650;DHT22;822;53.670;8.676;2023-04-03T01:50:47;0.90;89.30
1650;DHT22;822;53.670;8.676;2023-04-03T01:53:14;0.90;89.40
1650;DHT22;822;53.670;8.676;2023-04-03T01:55:41;1.00;89.60
1650;DHT22;822;53.670;8.676;2023-04-03T01:58:08;1.00;89.50
1650;DHT22;822;53.670;8.676;2023-04-03T02:00:35;0.90;89.50
1650;DHT22;822;53.670;8.676;2023-04-03T02:03:03;0.90;89.60
1650;DHT22;822;53.670;8.676;2023-04-03T02:05:30;0.80;89.50
1650;DHT22;822;53.670;8.676;2023-04-03T02:07:58;0.80;89.60
1650;DHT22;822;53.670;8.676;2023-04-03T02:10:25;0.80;89.80
1650;DHT22;822;53.670;8.676;2023-04-03T02:12:52;0.80;89.90
1650;DHT22;822;53.670;8.676;2023-04-03T02:15:20;0.70;90.00
1650;DHT22;822;53.670;8.676;2023-04-03T02:17:47;0.80;90.00
1650;DHT22;822;53.670;8.676;2023-04-03T02:20:14;0.70;90.10
1650;DHT22;822;53.670;8.676;2023-04-03T02:22:41;0.70;90.20
1650;DHT22;822;53.670;8.676;2023-04-03T02:25:11;0.70;90.20
1650;DHT22;822;53.670;8.676;2023-04-03T02:27:38;0.70;90.20
1650;DHT22;822;53.670;8.676;2023-04-03T02:30:06;0.70;90.50
1650;DHT22;822;53.670;8.676;2023-04-03T02:32:35;0.70;90.30
1650;DHT22;822;53.670;8.676;2023-04-03T02:35:02;0.70;90.30
1650;DHT22;822;53.670;8.676;2023-04-03T02:37:29;0.60;90.30
1650;DHT22;822;53.670;8.676;2023-04-03T02:39:57;0.60;90.30
1650;DHT22;822;53.670;8.676;2023-04-03T02:42:25;0.60;90.40
1650;DHT22;822;53.670;8.676;2023-04-03T02:44:55;0.60;90.40
1650;DHT22;822;53.670;8.676;2023-04-03T02:47:22;0.60;90.40
1650;DHT22;822;53.670;8.676;2023-04-03T02:49:49;0.60;90.50
1650;DHT22;822;53.670;8.676;2023-04-03T02:52:21;0.60;90.50
1650;DHT22;822;53.670;8.676;2023-04-03T02:54:48;0.60;90.60
1650;DHT22;822;53.670;8.676;2023-04-03T02:57:15;0.50;90.60
1650;DHT22;822;53.670;8.676;2023-04-03T02:59:44;0.50;90.60
1650;DHT22;822;53.670;8.676;2023-04-03T03:02:11;0.50;90.60
1650;DHT22;822;53.670;8.676;2023-04-03T03:04:38;0.50;90.60
1650;DHT22;822;53.670;8.676;2023-04-03T03:07:05;0.40;90.90
1650;DHT22;822;53.670;8.676;2023-04-03T03:09:33;0.40;90.60
1650;DHT22;822;53.670;8.676;2023-04-03T03:12:00;0.30;90.70
1650;DHT22;822;53.670;8.676;2023-04-03T03:14:30;0.20;90.70
1650;DHT22;822;53.670;8.676;2023-04-03T03:16:59;0.20;90.70
1650;DHT22;822;53.670;8.676;2023-04-03T03:19:26;0.20;90.80
1650;DHT22;822;53.670;8.676;2023-04-03T03:21:53;0.20;90.90
1650;DHT22;822;53.670;8.676;2023-04-03T03:24:20;0.20;90.90
1650;DHT22;822;53.670;8.676;2023-04-03T03:26:47;0.20;91.00
1650;DHT22;822;53.670;8.676;2023-04-03T03:29:15;0.20;91.00
1650;DHT22;822;53.670;8.676;2023-04-03T03:31:42;0.20;91.10
1650;DHT22;822;53.670;8.676;2023-04-03T03:34:10;0.20;91.10
1650;DHT22;822;53.670;8.676;2023-04-03T03:36:37;0.20;91.20
1650;DHT22;822;53.670;8.676;2023-04-03T03:39:05;0.20;91.20
1650;DHT22;822;53.670;8.676;2023-04-03T03:41:32;0.20;91.30
1650;DHT22;822;53.670;8.676;2023-04-03T03:44:02;0.20;91.30
1650;DHT22;822;53.670;8.676;2023-04-03T03:46:29;0.10;91.30
1650;DHT22;822;53.670;8.676;2023-04-03T03:48:58;0.10;91.40
1650;DHT22;822;53.670;8.676;2023-04-03T03:51:27;0.10;91.40
1650;DHT22;822;53.670;8.676;2023-04-03T03:53:54;0.10;91.40
1650;DHT22;822;53.670;8.676;2023-04-03T03:56:21;0.00;91.50
1650;DHT22;822;53.670;8.676;2023-04-03T03:58:48;0.10;91.60
1650;DHT22;822;53.670;8.676;2023-04-03T04:01:16;0.10;91.60
1650;DHT22;822;53.670;8.676;2023-04-03T04:03:43;0.10;91.70
1650;DHT22;822;53.670;8.676;2023-04-03T04:06:10;0.10;91.70
1650;DHT22;822;53.670;8.676;2023-04-03T04:08:39;0.00;91.70
1650;DHT22;822;53.670;8.676;2023-04-03T04:11:07;0.00;91.70
1650;DHT22;822;53.670;8.676;2023-04-03T04:13:34;0.00;91.70
1650;DHT22;822;53.670;8.676;2023-04-03T04:16:01;0.00;91.70
1650;DHT22;822;53.670;8.676;2023-04-03T04:18:28;0.00;91.80
1650;DHT22;822;53.670;8.676;2023-04-03T04:20:55;-0.10;91.80
1650;DHT22;822;53.670;8.676;2023-04-03T04:23:22;-0.10;91.70
1650;DHT22;822;53.670;8.676;2023-04-03T04:25:51;-0.10;91.80
1650;DHT22;822;53.670;8.676;2023-04-03T04:28:18;-0.20;91.80
1650;DHT22;822;53.670;8.676;2023-04-03T04:30:45;-0.20;91.80
1650;DHT22;822;53.670;8.676;2023-04-03T04:33:12;-0.20;91.90
1650;DHT22;822;53.670;8.676;2023-04-03T04:35:42;-0.20;92.00
1650;DHT22;822;53.670;8.676;2023-04-03T04:38:09;-0.30;92.00
1650;DHT22;822;53.670;8.676;2023-04-03T04:40:36;-0.30;92.00
1650;DHT22;822;53.670;8.676;2023-04-03T04:43:05;-0.30;92.00
1650;DHT22;822;53.670;8.676;2023-04-03T04:45:32;-0.30;92.00
1650;DHT22;822;53.670;8.676;2023-04-03T04:47:59;-0.30;92.10
1650;DHT22;822;53.670;8.676;2023-04-03T04:50:26;-0.30;92.20
1650;DHT22;822;53.670;8.676;2023-04-03T04:52:53;-0.30;92.20
1650;DHT22;822;53.670;8.676;2023-04-03T04:55:20;-0.30;92.30
1650;DHT22;822;53.670;8.676;2023-04-03T04:57:48;-0.30;92.30
1650;DHT22;822;53.670;8.676;2023-04-03T05:00:17;-0.30;92.40
1650;DHT22;822;53.670;8.676;2023-04-03T05:02:44;-0.30;92.30
1650;DHT22;822;53.670;8.676;2023-04-03T05:05:15;-0.30;92.40
1650;DHT22;822;53.670;8.676;2023-04-03T05:07:42;-0.30;92.40
1650;DHT22;822;53.670;8.676;2023-04-03T05:10:10;-0.30;92.40
1650;DHT22;822;53.670;8.676;2023-04-03T05:12:37;-0.30;92.40
1650;DHT22;822;53.670;8.676;2023-04-03T05:15:05;-0.30;92.50
1650;DHT22;822;53.670;8.676;2023-04-03T05:17:34;-0.30;92.50
1650;DHT22;822;53.670;8.676;2023-04-03T05:20:02;-0.40;92.50
1650;DHT22;822;53.670;8.676;2023-04-03T05:22:29;-0.40;92.60
1650;DHT22;822;53.670;8.676;2023-04-03T05:24:56;-0.40;92.60
1650;DHT22;822;53.670;8.676;2023-04-03T05:27:23;-0.40;92.70
1650;DHT22;822;53.670;8.676;2023-04-03T05:29:54;-0.40;92.70
1650;DHT22;822;53.670;8.676;2023-04-03T05:32:22;-0.40;92.80
1650;DHT22;822;53.670;8.676;2023-04-03T05:34:50;-0.30;92.90
1650;DHT22;822;53.670;8.676;2023-04-03T05:37:20;-0.30;93.10
1650;DHT22;822;53.670;8.676;2023-04-03T05:39:48;-0.10;93.40
1650;DHT22;822;53.670;8.676;2023-04-03T05:42:15;0.20;93.30
1650;DHT22;822;53.670;8.676;2023-04-03T05:44:42;0.30;92.70
1650;DHT22;822;53.670;8.676;2023-04-03T05:47:11;0.30;92.60
1650;DHT22;822;53.670;8.676;2023-04-03T05:49:40;0.30;92.60
1650;DHT22;822;53.670;8.676;2023-04-03T05:52:17;0.20;92.70
1650;DHT22;822;53.670;8.676;2023-04-03T05:54:45;0.20;92.70
1650;DHT22;822;53.670;8.676;2023-04-03T05:57:14;0.20;92.80
1650;DHT22;822;53.670;8.676;2023-04-03T05:59:42;0.20;92.90
1650;DHT22;822;53.670;8.676;2023-04-03T06:02:10;0.30;93.00
1650;DHT22;822;53.670;8.676;2023-04-03T06:04:38;0.30;93.10
1650;DHT22;822;53.670;8.676;2023-04-03T06:07:13;0.40;93.20
1650;DHT22;822;53.670;8.676;2023-04-03T06:09:42;0.40;93.30
1650;DHT22;822;53.670;8.676;2023-04-03T06:12:10;0.50;93.30
1650;DHT22;822;53.670;8.676;2023-04-03T06:14:37;0.50;93.40
1650;DHT22;822;53.670;8.676;2023-04-03T06:17:07;0.60;93.40
1650;DHT22;822;53.670;8.676;2023-04-03T06:19:35;0.70;93.40
1650;DHT22;822;53.670;8.676;2023-04-03T06:22:02;0.70;93.40
1650;DHT22;822;53.670;8.676;2023-04-03T06:24:31;0.80;93.40
1650;DHT22;822;53.670;8.676;2023-04-03T06:26:58;0.80;93.50
1650;DHT22;822;53.670;8.676;2023-04-03T06:29:26;0.90;93.50
1650;DHT22;822;53.670;8.676;2023-04-03T06:31:53;1.00;93.50
1650;DHT22;822;53.670;8.676;2023-04-03T06:34:20;1.10;93.50
1650;DHT22;822;53.670;8.676;2023-04-03T06:36:51;1.10;93.50
1650;DHT22;822;53.670;8.676;2023-04-03T06:39:21;1.20;93.50
1650;DHT22;822;53.670;8.676;2023-04-03T06:41:51;1.30;93.50
1650;DHT22;822;53.670;8.676;2023-04-03T06:44:18;1.40;93.50
1650;DHT22;822;53.670;8.676;2023-04-03T06:46:47;1.50;93.40
1650;DHT22;822;53.670;8.676;2023-04-03T06:49:14;1.50;93.30
1650;DHT22;822;53.670;8.676;2023-04-03T06:51:42;1.60;93.20
1650;DHT22;822;53.670;8.676;2023-04-03T06:54:10;1.60;93.10
1650;DHT22;822;53.670;8.676;2023-04-03T06:56:37;1.80;93.00
1650;DHT22;822;53.670;8.676;2023-04-03T06:59:11;1.80;93.00
1650;DHT22;822;53.670;8.676;2023-04-03T07:01:42;1.90;93.00
1650;DHT22;822;53.670;8.676;2023-04-03T07:04:09;2.00;93.00
1650;DHT22;822;53.670;8.676;2023-04-03T07:06:36;2.10;92.90
1650;DHT22;822;53.670;8.676;2023-04-03T07:09:03;2.10;93.10
1650;DHT22;822;53.670;8.676;2023-04-03T07:11:32;2.20;92.70
1650;DHT22;822;53.670;8.676;2023-04-03T07:13:59;2.30;92.70
1650;DHT22;822;53.670;8.676;2023-04-03T07:16:31;2.40;92.60
1650;DHT22;822;53.670;8.676;2023-04-03T07:18:58;2.50;92.60
1650;DHT22;822;53.670;8.676;2023-04-03T07:21:25;2.60;92.50
1650;DHT22;822;53.670;8.676;2023-04-03T07:23:52;2.70;92.40
1650;DHT22;822;53.670;8.676;2023-04-03T07:26:19;2.80;92.40
1650;DHT22;822;53.670;8.676;2023-04-03T07:28:50;2.90;92.20
1650;DHT22;822;53.670;8.676;2023-04-03T07:31:18;3.10;92.10
1650;DHT22;822;53.670;8.676;2023-04-03T07:33:47;3.20;91.70
1650;DHT22;822;53.670;8.676;2023-04-03T07:36:19;3.30;91.60
1650;DHT22;822;53.670;8.676;2023-04-03T07:38:47;3.50;91.50
1650;DHT22;822;53.670;8.676;2023-04-03T07:41:16;3.70;90.40
1650;DHT22;822;53.670;8.676;2023-04-03T07:43:44;3.80;89.90
1650;DHT22;822;53.670;8.676;2023-04-03T07:46:12;4.00;88.80
1650;DHT22;822;53.670;8.676;2023-04-03T07:48:39;4.10;87.70
1650;DHT22;822;53.670;8.676;2023-04-03T07:51:09;4.30;86.00
1650;DHT22;822;53.670;8.676;2023-04-03T07:53:36;4.40;83.60
1650;DHT22;822;53.670;8.676;2023-04-03T07:56:03;4.60;82.20
1650;DHT22;822;53.670;8.676;2023-04-03T07:58:30;4.70;79.40
1650;DHT22;822;53.670;8.676;2023-04-03T08:00:57;4.90;78.90
1650;DHT22;822;53.670;8.676;2023-04-03T08:03:25;5.00;78.30
1650;DHT22;822;53.670;8.676;2023-04-03T08:05:52;5.20;76.10
1650;DHT22;822;53.670;8.676;2023-04-03T08:08:22;5.40;75.30
1650;DHT22;822;53.670;8.676;2023-04-03T08:10:50;5.60;73.60
1650;DHT22;822;53.670;8.676;2023-04-03T08:13:17;5.70;72.60
1650;DHT22;822;53.670;8.676;2023-04-03T08:15:44;5.90;72.50
1650;DHT22;822;53.670;8.676;2023-04-03T08:18:12;6.00;72.10
1650;DHT22;822;53.670;8.676;2023-04-03T08:20:39;6.10;69.40
1650;DHT22;822;53.670;8.676;2023-04-03T08:23:06;6.30;69.60
1650;DHT22;822;53.670;8.676;2023-04-03T08:25:38;6.40;68.50
1650;DHT22;822;53.670;8.676;2023-04-03T08:28:05;6.60;68.60
1650;DHT22;822;53.670;8.676;2023-04-03T08:30:33;6.70;66.90
1650;DHT22;822;53.670;8.676;2023-04-03T08:33:00;6.70;59.40
1650;DHT22;822;53.670;8.676;2023-04-03T08:35:27;6.80;61.30
1650;DHT22;822;53.670;8.676;2023-04-03T08:37:55;7.00;62.60
1650;DHT22;822;53.670;8.676;2023-04-03T08:40:22;7.20;62.90
1650;DHT22;822;53.670;8.676;2023-04-03T08:43:00;7.30;62.40
1650;DHT22;822;53.670;8.676;2023-04-03T08:45:38;7.50;59.80
1650;DHT22;822;53.670;8.676;2023-04-03T08:48:13;7.50;54.60
1650;DHT22;822;53.670;8.676;2023-04-03T08:50:43;7.40;53.60
1650;DHT22;822;53.670;8.676;2023-04-03T08:53:14;7.50;54.40
1650;DHT22;822;53.670;8.676;2023-04-03T08:55:43;7.60;54.80
1650;DHT22;822;53.670;8.676;2023-04-03T08:58:16;7.80;54.40
1650;DHT22;822;53.670;8.676;2023-04-03T09:00:46;8.00;53.30
1650;DHT22;822;53.670;8.676;2023-04-03T09:03:16;8.20;52.50
1650;DHT22;822;53.670;8.676;2023-04-03T09:05:47;8.40;52.60
1650;DHT22;822;53.670;8.676;2023-04-03T09:08:22;8.50;52.10
1650;DHT22;822;53.670;8.676;2023-04-03T09:11:11;8.70;52.10
1650;DHT22;822;53.670;8.676;2023-04-03T09:13:47;8.90;52.30
1650;DHT22;822;53.670;8.676;2023-04-03T09:16:25;9.10;51.50
1650;DHT22;822;53.670;8.676;2023-04-03T09:18:57;9.20;49.30
1650;DHT22;822;53.670;8.676;2023-04-03T09:21:32;9.20;49.20
1650;DHT22;822;53.670;8.676;2023-04-03T09:24:02;9.40;48.20
1650;DHT22;822;53.670;8.676;2023-04-03T09:26:34;9.40;46.00
1650;DHT22;822;53.670;8.676;2023-04-03T09:29:06;9.60;47.90
1650;DHT22;822;53.670;8.676;2023-04-03T09:31:37;9.60;45.10
1650;DHT22;822;53.670;8.676;2023-04-03T09:34:10;9.70;46.20
1650;DHT22;822;53.670;8.676;2023-04-03T09:36:42;9.70;44.50
1650;DHT22;822;53.670;8.676;2023-04-03T09:39:13;9.90;43.80
1650;DHT22;822;53.670;8.676;2023-04-03T09:41:40;10.10;43.00
1650;DHT22;822;53.670;8.676;2023-04-03T09:44:23;10.20;40.90
1650;DHT22;822;53.670;8.676;2023-04-03T09:46:51;10.20;42.20
1650;DHT22;822;53.670;8.676;2023-04-03T09:49:18;10.40;43.40
1650;DHT22;822;53.670;8.676;2023-04-03T09:51:46;10.50;41.70
1650;DHT22;822;53.670;8.676;2023-04-03T09:54:32;10.40;36.50
1650;DHT22;822;53.670;8.676;2023-04-03T09:57:06;10.40;40.20
1650;DHT22;822;53.670;8.676;2023-04-03T09:59:43;10.50;41.40
1650;DHT22;822;53.670;8.676;2023-04-03T10:02:30;10.70;41.80
1650;DHT22;822;53.670;8.676;2023-04-03T10:04:59;10.80;40.20
1650;DHT22;822;53.670;8.676;2023-04-03T10:07:31;11.00;41.80
1650;DHT22;822;53.670;8.676;2023-04-03T10:10:01;11.20;40.80
1650;DHT22;822;53.670;8.676;2023-04-03T10:12:29;11.30;40.20
1650;DHT22;822;53.670;8.676;2023-04-03T10:14:59;11.30;40.20
1650;DHT22;822;53.670;8.676;2023-04-03T10:17:41;11.40;40.90
1650;DHT22;822;53.670;8.676;2023-04-03T10:20:26;11.70;36.60
1650;DHT22;822;53.670;8.676;2023-04-03T10:23:08;11.50;37.90
1650;DHT22;822;53.670;8.676;2023-04-03T10:25:43;11.40;34.60
1650;DHT22;822;53.670;8.676;2023-04-03T10:28:20;11.50;39.80
1650;DHT22;822;53.670;8.676;2023-04-03T10:30:56;11.50;37.10
1650;DHT22;822;53.670;8.676;2023-04-03T10:33:49;11.30;37.60
1650;DHT22;822;53.670;8.676;2023-04-03T10:36:28;11.20;39.40
1650;DHT22;822;53.670;8.676;2023-04-03T10:39:02;11.20;38.00
1650;DHT22;822;53.670;8.676;2023-04-03T10:41:43;11.20;38.90
1650;DHT22;822;53.670;8.676;2023-04-03T10:44:18;11.40;39.70
1650;DHT22;822;53.670;8.676;2023-04-03T10:46:50;11.70;39.80
1650;DHT22;822;53.670;8.676;2023-04-03T10:49:29;11.90;38.50
1650;DHT22;822;53.670;8.676;2023-04-03T10:52:02;12.10;38.90
1650;DHT22;822;53.670;8.676;2023-04-03T10:54:36;12.30;38.50
1650;DHT22;822;53.670;8.676;2023-04-03T10:57:06;12.30;37.60
1650;DHT22;822;53.670;8.676;2023-04-03T10:59:38;12.40;39.60
1650;DHT22;822;53.670;8.676;2023-04-03T11:02:16;12.50;38.40
1650;DHT22;822;53.670;8.676;2023-04-03T11:04:47;12.50;37.30
1650;DHT22;822;53.670;8.676;2023-04-03T11:07:18;12.30;39.60
1650;DHT22;822;53.670;8.676;2023-04-03T11:09:49;12.50;41.30
1650;DHT22;822;53.670;8.676;2023-04-03T11:12:25;12.70;37.70
1650;DHT22;822;53.670;8.676;2023-04-03T11:14:55;12.80;38.20
1650;DHT22;822;53.670;8.676;2023-04-03T11:17:30;12.80;35.90
1650;DHT22;822;53.670;8.676;2023-04-03T11:20:03;12.70;37.00
1650;DHT22;822;53.670;8.676;2023-04-03T11:22:35;12.70;36.90
1650;DHT22;822;53.670;8.676;2023-04-03T11:25:08;12.50;34.30
1650;DHT22;822;53.670;8.676;2023-04-03T11:27:43;12.40;37.10
1650;DHT22;822;53.670;8.676;2023-04-03T11:30:18;12.50;35.30
1650;DHT22;822;53.670;8.676;2023-04-03T11:33:03;12.40;33.60
1650;DHT22;822;53.670;8.676;2023-04-03T11:35:33;12.40;36.20
1650;DHT22;822;53.670;8.676;2023-04-03T11:38:02;12.50;37.90
1650;DHT22;822;53.670;8.676;2023-04-03T11:40:33;12.80;38.50
1650;DHT22;822;53.670;8.676;2023-04-03T11:43:06;13.00;36.70
1650;DHT22;822;53.670;8.676;2023-04-03T11:45:45;13.00;33.80
1650;DHT22;822;53.670;8.676;2023-04-03T11:48:44;12.90;34.10
1650;DHT22;822;53.670;8.676;2023-04-03T11:51:41;12.90;36.20
1650;DHT22;822;53.670;8.676;2023-04-03T11:54:47;12.90;36.80
1650;DHT22;822;53.670;8.676;2023-04-03T11:57:46;12.90;35.40
1650;DHT22;822;53.670;8.676;2023-04-03T12:03:32;13.10;37.70
1650;DHT22;822;53.670;8.676;2023-04-03T12:09:01;13.10;35.40
1650;DHT22;822;53.670;8.676;2023-04-03T12:11:30;13.00;34.60
1650;DHT22;822;53.670;8.676;2023-04-03T12:14:04;12.80;35.10
1650;DHT22;822;53.670;8.676;2023-04-03T12:16:33;12.60;33.50
1650;DHT22;822;53.670;8.676;2023-04-03T12:19:29;12.60;35.70
1650;DHT22;822;53.670;8.676;2023-04-03T12:22:11;12.70;38.50
1650;DHT22;822;53.670;8.676;2023-04-03T12:24:41;12.80;36.30
1650;DHT22;822;53.670;8.676;2023-04-03T12:27:28;13.10;37.70
1650;DHT22;822;53.670;8.676;2023-04-03T12:30:04;13.20;36.90
1650;DHT22;822;53.670;8.676;2023-04-03T12:32:48;13.20;36.00
1650;DHT22;822;53.670;8.676;2023-04-03T12:35:23;13.00;36.90
1650;DHT22;822;53.670;8.676;2023-04-03T12:40:58;12.80;37.70
1650;DHT22;822;53.670;8.676;2023-04-03T12:43:38;13.00;38.70
1650;DHT22;822;53.670;8.676;2023-04-03T12:46:12;13.20;39.00
1650;DHT22;822;53.670;8.676;2023-04-03T12:48:48;13.30;37.60
1650;DHT22;822;53.670;8.676;2023-04-03T12:51:19;13.20;37.00
1650;DHT22;822;53.670;8.676;2023-04-03T12:53:49;13.10;36.60
1650;DHT22;822;53.670;8.676;2023-04-03T12:56:23;12.80;36.80
1650;DHT22;822;53.670;8.676;2023-04-03T12:58:53;12.70;39.30
1650;DHT22;822;53.670;8.676;2023-04-03T13:01:21;12.70;38.70
1650;DHT22;822;53.670;8.676;2023-04-03T13:03:55;12.70;39.00
1650;DHT22;822;53.670;8.676;2023-04-03T13:06:25;12.70;37.30
1650;DHT22;822;53.670;8.676;2023-04-03T13:08:54;12.40;36.50
1650;DHT22;822;53.670;8.676;2023-04-03T13:11:26;12.30;37.40
1650;DHT22;822;53.670;8.676;2023-04-03T13:13:56;12.40;38.40
1650;DHT22;822;53.670;8.676;2023-04-03T13:16:23;12.50;36.40
1650;DHT22;822;53.670;8.676;2023-04-03T13:18:51;12.70;37.60
1650;DHT22;822;53.670;8.676;2023-04-03T13:21:20;12.70;38.40
1650;DHT22;822;53.670;8.676;2023-04-03T13:23:50;12.80;37.90
1650;DHT22;822;53.670;8.676;2023-04-03T13:26:20;12.80;40.00
1650;DHT22;822;53.670;8.676;2023-04-03T13:28:49;12.90;40.00
1650;DHT22;822;53.670;8.676;2023-04-03T13:31:23;13.00;39.70
1650;DHT22;822;53.670;8.676;2023-04-03T13:33:58;13.10;39.80
1650;DHT22;822;53.670;8.676;2023-04-03T13:36:31;13.00;38.50
1650;DHT22;822;53.670;8.676;2023-04-03T13:39:03;13.00;38.70
1650;DHT22;822;53.670;8.676;2023-04-03T13:41:33;13.00;39.80
1650;DHT22;822;53.670;8.676;2023-04-03T13:44:30;12.90;39.20
1650;DHT22;822;53.670;8.676;2023-04-03T13:47:01;12.90;40.50
1650;DHT22;822;53.670;8.676;2023-04-03T13:49:42;12.90;38.10
1650;DHT22;822;53.670;8.676;2023-04-03T13:52:23;12.80;38.40
1650;DHT22;822;53.670;8.676;2023-04-03T13:54:53;12.80;39.00
1650;DHT22;822;53.670;8.676;2023-04-03T13:57:22;12.80;40.00
1650;DHT22;822;53.670;8.676;2023-04-03T13:59:51;12.70;38.60
1650;DHT22;822;53.670;8.676;2023-04-03T14:02:21;12.70;39.60
1650;DHT22;822;53.670;8.676;2023-04-03T14:04:52;12.70;39.50
1650;DHT22;822;53.670;8.676;2023-04-03T14:07:22;12.60;38.40
1650;DHT22;822;53.670;8.676;2023-04-03T14:09:49;12.60;37.90
1650;DHT22;822;53.670;8.676;2023-04-03T14:12:20;12.40;39.70
1650;DHT22;822;53.670;8.676;2023-04-03T14:14:50;12.40;41.10
1650;DHT22;822;53.670;8.676;2023-04-03T14:17:19;12.50;40.60
1650;DHT22;822;53.670;8.676;2023-04-03T14:19:49;12.30;39.10
1650;DHT22;822;53.670;8.676;2023-04-03T14:22:19;12.20;40.60
1650;DHT22;822;53.670;8.676;2023-04-03T14:24:48;12.00;41.20
1650;DHT22;822;53.670;8.676;2023-04-03T14:27:20;12.00;41.20
1650;DHT22;822;53.670;8.676;2023-04-03T14:29:51;11.90;40.10
1650;DHT22;822;53.670;8.676;2023-04-03T14:32:20;11.80;41.00
1650;DHT22;822;53.670;8.676;2023-04-03T14:34:48;11.80;41.70
1650;DHT22;822;53.670;8.676;2023-04-03T14:37:17;11.70;42.50
1650;DHT22;822;53.670;8.676;2023-04-03T14:39:45;11.70;42.10
1650;DHT22;822;53.670;8.676;2023-04-03T14:42:14;11.60;43.30
1650;DHT22;822;53.670;8.676;2023-04-03T14:44:42;11.40;43.40
1650;DHT22;822;53.670;8.676;2023-04-03T14:47:12;11.40;43.70
1650;DHT22;822;53.670;8.676;2023-04-03T14:49:40;11.40;44.90
1650;DHT22;822;53.670;8.676;2023-04-03T14:52:18;11.40;44.70
1650;DHT22;822;53.670;8.676;2023-04-03T14:54:45;11.30;45.70
1650;DHT22;822;53.670;8.676;2023-04-03T14:57:14;11.30;45.80
1650;DHT22;822;53.670;8.676;2023-04-03T14:59:42;11.20;43.80
1650;DHT22;822;53.670;8.676;2023-04-03T15:02:24;11.20;43.60
1650;DHT22;822;53.670;8.676;2023-04-03T15:04:52;11.10;43.60
1650;DHT22;822;53.670;8.676;2023-04-03T15:07:20;11.00;44.10
1650;DHT22;822;53.670;8.676;2023-04-03T15:09:47;11.00;44.70
1650;DHT22;822;53.670;8.676;2023-04-03T15:12:14;10.80;44.70
1650;DHT22;822;53.670;8.676;2023-04-03T15:14:41;10.80;44.70
1650;DHT22;822;53.670;8.676;2023-04-03T15:17:13;10.60;43.90
1650;DHT22;822;53.670;8.676;2023-04-03T15:19:43;10.40;44.40
1650;DHT22;822;53.670;8.676;2023-04-03T15:22:13;10.30;45.20
1650;DHT22;822;53.670;8.676;2023-04-03T15:24:41;10.20;45.40
1650;DHT22;822;53.670;8.676;2023-04-03T15:27:08;10.10;45.40
1650;DHT22;822;53.670;8.676;2023-04-03T15:29:36;10.00;46.60
1650;DHT22;822;53.670;8.676;2023-04-03T15:32:03;9.90;48.30
1650;DHT22;822;53.670;8.676;2023-04-03T15:34:30;9.90;49.40
1650;DHT22;822;53.670;8.676;2023-04-03T15:36:59;9.70;48.70
1650;DHT22;822;53.670;8.676;2023-04-03T15:39:26;9.60;49.50
1650;DHT22;822;53.670;8.676;2023-04-03T15:41:56;9.50;49.20
1650;DHT22;822;53.670;8.676;2023-04-03T15:44:25;9.40;48.70
1650;DHT22;822;53.670;8.676;2023-04-03T15:46:52;9.30;49.20
1650;DHT22;822;53.670;8.676;2023-04-03T15:49:21;9.30;49.10
1650;DHT22;822;53.670;8.676;2023-04-03T15:51:49;9.30;49.50
1650;DHT22;822;53.670;8.676;2023-04-03T15:54:17;9.20;49.30
1650;DHT22;822;53.670;8.676;2023-04-03T15:56:45;9.10;49.20
1650;DHT22;822;53.670;8.676;2023-04-03T15:59:12;9.10;49.90
1650;DHT22;822;53.670;8.676;2023-04-03T16:01:39;9.00;50.50
1650;DHT22;822;53.670;8.676;2023-04-03T16:04:08;9.00;51.10
1650;DHT22;822;53.670;8.676;2023-04-03T16:06:36;8.90;51.50
1650;DHT22;822;53.670;8.676;2023-04-03T16:09:03;8.90;51.70
1650;DHT22;822;53.670;8.676;2023-04-03T16:11:32;8.80;51.10
1650;DHT22;822;53.670;8.676;2023-04-03T16:14:01;8.70;50.90
1650;DHT22;822;53.670;8.676;2023-04-03T16:16:28;8.70;51.60
1650;DHT22;822;53.670;8.676;2023-04-03T16:19:02;8.60;50.20
1650;DHT22;822;53.670;8.676;2023-04-03T16:21:29;8.60;50.70
1650;DHT22;822;53.670;8.676;2023-04-03T16:23:57;8.50;51.00
1650;DHT22;822;53.670;8.676;2023-04-03T16:26:24;8.40;50.80
1650;DHT22;822;53.670;8.676;2023-04-03T16:28:53;8.40;51.50
1650;DHT22;822;53.670;8.676;2023-04-03T16:31:21;8.40;51.90
1650;DHT22;822;53.670;8.676;2023-04-03T16:33:49;8.30;52.50
1650;DHT22;822;53.670;8.676;2023-04-03T16:36:16;8.30;52.70
1650;DHT22;822;53.670;8.676;2023-04-03T16:38:44;8.20;53.00
1650;DHT22;822;53.670;8.676;2023-04-03T16:41:11;8.20;53.10
1650;DHT22;822;53.670;8.676;2023-04-03T16:43:38;8.20;53.20
1650;DHT22;822;53.670;8.676;2023-04-03T16:46:07;8.10;53.20
1650;DHT22;822;53.670;8.676;2023-04-03T16:48:34;8.10;53.80
1650;DHT22;822;53.670;8.676;2023-04-03T16:51:01;8.10;54.40
1650;DHT22;822;53.670;8.676;2023-04-03T16:53:28;8.00;54.80
1650;DHT22;822;53.670;8.676;2023-04-03T16:55:57;8.00;54.70
1650;DHT22;822;53.670;8.676;2023-04-03T16:58:25;7.90;54.60
1650;DHT22;822;53.670;8.676;2023-04-03T17:00:52;7.90;54.50